Time;durP1;ratioP1;P1;durP2;ratioP2;P2;SDS_P1;SDS_P2;PMS_P1;PMS_P2;Temp;Humidity;BMP_temperature;BMP_pressure;BME280_temperature;BME280_humidity;BME280_pressure;Samples;Min_cycle;Max_cycle;Signal;HPM_P1;HPM_P2
2023/08/12 00:01:02;;;;;;;10.10;6.55;;;;;;;25.37;52.76;101756.63;6102103;23;20031;-77
2023/08/12 00:03:34;;;;;;;12.57;6.68;;;;;;;25.25;52.76;101722.94;6156925;23;20055;-80
2023/08/12 00:06:05;;;;;;;10.63;6.50;;;;;;;25.37;52.94;101754.72;6165824;23;20024;-79
2023/08/12 00:08:31;;;;;;;10.35;5.88;;;;;;;25.26;52.97;101741.72;6151163;23;20083;-78
2023/08/12 00:11:00;;;;;;;10.82;5.90;;;;;;;25.34;52.85;101749.72;6130707;23;20020;-79
2023/08/12 00:13:30;;;;;;;11.82;5.95;;;;;;;25.31;52.81;101750.09;6144240;23;20016;-82
2023/08/12 00:16:03;;;;;;;11.30;6.35;;;;;;;25.07;52.99;101718.03;6159699;23;20025;-78
2023/08/12 00:18:36;;;;;;;11.95;7.05;;;;;;;25.20;53.22;101739.84;6144826;23;20204;-81
2023/08/12 00:21:10;;;;;;;18.27;6.10;;;;;;;25.22;53.48;101735.06;6122278;23;20016;-81
2023/08/12 00:23:39;;;;;;;20.17;6.50;;;;;;;25.16;53.60;101724.97;6141797;23;20017;-81
2023/08/12 00:26:07;;;;;;;12.65;6.70;;;;;;;25.20;53.70;101742.56;6143602;23;20452;-81
2023/08/12 00:28:38;;;;;;;14.38;6.35;;;;;;;24.92;53.32;101691.06;6111568;23;20100;-81
2023/08/12 00:31:16;;;;;;;16.27;6.97;;;;;;;25.02;53.40;101717.81;6090141;23;20017;-81
2023/08/12 00:33:46;;;;;;;13.77;6.40;;;;;;;25.09;53.97;101729.56;6106809;23;20262;-81
2023/08/12 00:36:15;;;;;;;13.98;6.68;;;;;;;24.99;53.55;101710.09;6129467;23;20336;-81
2023/08/12 00:38:42;;;;;;;10.95;6.35;;;;;;;25.08;53.70;101723.28;6136028;23;20021;-81
2023/08/12 00:41:08;;;;;;;13.65;6.75;;;;;;;25.16;53.88;101735.84;6151822;23;20227;-80
2023/08/12 00:43:37;;;;;;;8.98;6.80;;;;;;;25.20;53.38;101737.16;6143882;23;20025;-81
2023/08/12 00:46:04;;;;;;;9.32;6.97;;;;;;;25.13;53.95;101737.09;6141659;23;20488;-79
2023/08/12 00:48:32;;;;;;;11.45;6.47;;;;;;;25.12;53.84;101734.56;6180647;23;20027;-82
2023/08/12 00:50:59;;;;;;;11.10;6.88;;;;;;;25.26;53.42;101730.88;6159160;23;20167;-81
2023/08/12 00:53:27;;;;;;;14.60;7.88;;;;;;;25.15;53.83;101740.44;6123015;23;20056;-82
2023/08/12 00:55:54;;;;;;;10.23;7.13;;;;;;;25.19;54.08;101734.63;6168501;23;20020;-81
2023/08/12 00:58:25;;;;;;;13.30;7.20;;;;;;;24.88;54.50;101695.22;6160608;23;20016;-81
2023/08/12 01:00:52;;;;;;;10.95;6.53;;;;;;;25.00;54.16;101730.78;6147798;23;20459;-81
2023/08/12 01:03:20;;;;;;;11.55;6.78;;;;;;;24.67;54.75;101683.47;6169384;23;20404;-78
2023/08/12 01:05:49;;;;;;;8.25;6.50;;;;;;;24.79;54.54;101705.44;6140256;23;20068;-81
2023/08/12 01:08:33;;;;;;;10.80;6.43;;;;;;;24.86;54.71;101719.06;6113193;23;20023;-80
2023/08/12 01:11:44;;;;;;;10.48;6.70;;;;;;;24.65;54.33;101676.56;6105507;23;20027;-81
2023/08/12 01:14:29;;;;;;;11.30;6.88;;;;;;;24.96;54.97;101730.38;6124567;23;20035;-81
2023/08/12 01:17:03;;;;;;;9.30;6.43;;;;;;;25.00;54.44;101725.34;6135337;23;20052;-80
2023/08/12 01:19:35;;;;;;;8.90;6.93;;;;;;;24.94;54.33;101716.97;6171399;23;20020;-81
2023/08/12 01:22:03;;;;;;;15.18;6.75;;;;;;;25.10;53.99;101726.63;6141159;23;20103;-80
2023/08/12 01:24:36;;;;;;;12.00;6.80;;;;;;;24.65;54.38;101671.16;6145492;23;20035;-81
2023/08/12 01:27:04;;;;;;;11.50;6.85;;;;;;;24.94;54.78;101716.16;6187820;23;20027;-81
2023/08/12 01:29:35;;;;;;;15.02;7.50;;;;;;;24.81;55.11;101716.09;6159417;23;20471;-81
2023/08/12 01:32:44;;;;;;;12.07;6.38;;;;;;;24.74;55.71;101721.50;6157531;23;20016;-81
2023/08/12 01:35:17;;;;;;;8.80;6.55;;;;;;;24.55;55.25;101665.28;6136791;23;20043;-81
2023/08/12 01:37:45;;;;;;;10.40;6.32;;;;;;;24.17;54.98;101611.44;6154612;23;20016;-80
2023/08/12 01:40:14;;;;;;;9.95;7.15;;;;;;;24.52;55.46;101664.63;6138732;23;20020;-81
2023/08/12 01:42:43;;;;;;;10.45;6.85;;;;;;;24.76;55.50;101703.16;6144071;23;20083;-80
2023/08/12 01:45:10;;;;;;;9.55;6.25;;;;;;;24.75;54.61;101709.59;6154396;23;20548;-82
2023/08/12 01:47:38;;;;;;;9.18;6.50;;;;;;;24.95;54.21;101707.81;6133072;23;20023;-81
2023/08/12 01:50:09;;;;;;;7.65;6.30;;;;;;;24.92;54.25;101693.78;6177639;23;20024;-81
2023/08/12 01:52:36;;;;;;;7.40;6.55;;;;;;;24.99;54.16;101699.22;6154450;23;20493;-81
2023/08/12 01:55:06;;;;;;;7.53;5.50;;;;;;;24.31;54.18;101610.44;6152618;23;20044;-81
2023/08/12 01:57:33;;;;;;;8.60;5.78;;;;;;;24.59;53.99;101658.38;6138280;23;20094;-80
2023/08/12 02:00:01;;;;;;;9.73;5.93;;;;;;;24.82;53.94;101701.47;6133742;23;20028;-80
2023/08/12 02:02:28;;;;;;;7.70;6.07;;;;;;;24.87;53.65;101701.72;6166880;23;20896;-80
2023/08/12 02:04:55;;;;;;;8.88;5.68;;;;;;;24.82;53.78;101702.31;6164230;23;20046;-80
2023/08/12 02:07:22;;;;;;;6.65;5.95;;;;;;;24.74;53.69;101688.94;6167463;23;20095;-80
2023/08/12 02:09:49;;;;;;;7.78;5.45;;;;;;;24.67;53.92;101682.63;6146692;23;20358;-80
2023/08/12 02:12:16;;;;;;;8.45;5.97;;;;;;;24.15;54.21;101597.22;6133656;23;20107;-81
2023/08/12 02:14:46;;;;;;;7.85;6.00;;;;;;;24.35;54.96;101655.13;6161143;23;20457;-80
2023/08/12 02:17:13;;;;;;;10.25;6.30;;;;;;;23.64;55.09;101547.75;6172569;23;20088;-80
2023/08/12 02:19:44;;;;;;;7.68;6.18;;;;;;;23.89;55.10;101591.47;6178682;23;20024;-81
2023/08/12 02:22:12;;;;;;;9.45;6.72;;;;;;;23.81;55.41;101593.50;6153587;23;20023;-79
2023/08/12 02:24:39;;;;;;;9.70;6.05;;;;;;;24.27;55.84;101696.00;6156702;23;20452;-80
2023/08/12 02:27:06;;;;;;;9.63;6.57;;;;;;;24.02;56.10;101657.69;6176554;23;20379;-81
2023/08/12 02:29:35;;;;;;;8.50;6.68;;;;;;;24.00;55.92;101657.88;6147956;23;20347;-81
2023/08/12 02:32:06;;;;;;;9.35;6.65;;;;;;;23.70;56.37;101626.59;6159275;23;20021;-81
2023/08/12 02:34:33;;;;;;;8.45;7.03;;;;;;;23.71;56.45;101628.25;6141394;23;20355;-80
2023/08/12 02:37:00;;;;;;;8.88;6.22;;;;;;;23.78;56.27;101634.59;6179531;23;20016;-80
2023/08/12 02:39:27;;;;;;;12.70;6.72;;;;;;;24.04;56.65;101694.41;6123035;23;20111;-82
2023/08/12 02:41:54;;;;;;;13.50;6.80;;;;;;;23.76;56.64;101642.91;6148607;23;20020;-80
2023/08/12 02:44:21;;;;;;;11.98;6.80;;;;;;;24.01;56.51;101677.72;6177047;23;20025;-81
2023/08/12 02:46:47;;;;;;;10.10;6.78;;;;;;;23.95;56.39;101668.47;6160260;23;20451;-80
2023/08/12 02:49:18;;;;;;;10.40;7.22;;;;;;;24.06;56.57;101683.38;6194651;23;20021;-80
2023/08/12 02:51:48;;;;;;;8.73;6.75;;;;;;;23.77;56.40;101635.63;6157440;23;20039;-80
2023/08/12 02:54:14;;;;;;;10.40;6.95;;;;;;;23.88;56.75;101656.75;6164511;23;20021;-81
2023/08/12 02:56:41;;;;;;;14.77;7.68;;;;;;;23.85;56.72;101654.44;6158741;23;20337;-80
2023/08/12 02:59:08;;;;;;;12.15;7.50;;;;;;;24.06;56.94;101697.75;6179567;23;20051;-81
2023/08/12 03:01:36;;;;;;;14.00;7.45;;;;;;;24.04;57.15;101696.28;6174331;23;20449;-78
2023/08/12 03:04:03;;;;;;;9.98;6.85;;;;;;;24.07;57.14;101699.44;6191284;23;20028;-82
2023/08/12 03:06:29;;;;;;;11.95;7.55;;;;;;;24.12;57.20;101695.28;6155853;23;20383;-81
2023/08/12 03:08:56;;;;;;;10.23;8.07;;;;;;;24.07;57.05;101699.44;6141067;23;20262;-79
2023/08/12 03:11:23;;;;;;;13.98;7.90;;;;;;;23.99;57.15;101691.47;6157105;23;20020;-80
2023/08/12 03:13:50;;;;;;;10.32;7.32;;;;;;;23.69;57.15;101633.88;6165660;23;20570;-81
2023/08/12 03:16:17;;;;;;;13.88;7.53;;;;;;;24.09;57.25;101696.53;6148292;23;20020;-79
2023/08/12 03:18:43;;;;;;;18.05;7.95;;;;;;;24.03;57.31;101692.75;6174763;23;20487;-81
2023/08/12 03:21:10;;;;;;;16.27;8.05;;;;;;;24.20;56.87;101704.13;6159597;23;20500;-80
2023/08/12 03:23:37;;;;;;;12.88;8.73;;;;;;;23.03;57.23;101525.84;6190772;23;20021;-81
2023/08/12 03:26:04;;;;;;;11.30;8.23;;;;;;;23.44;57.43;101611.78;6170050;23;20017;-80
2023/08/12 03:28:35;;;;;;;10.63;7.57;;;;;;;24.02;57.55;101707.31;6184107;23;20044;-80
2023/08/12 03:31:02;;;;;;;14.15;8.93;;;;;;;23.85;57.67;101692.41;6177175;23;20540;-81
2023/08/12 03:33:29;;;;;;;15.85;8.70;;;;;;;23.73;57.40;101670.41;6159940;23;20055;-80
2023/08/12 03:35:59;;;;;;;12.75;8.23;;;;;;;23.71;57.73;101668.91;6179122;23;20017;-81
2023/08/12 03:38:25;;;;;;;14.23;9.32;;;;;;;23.93;57.58;101705.78;6149000;23;20504;-79
2023/08/12 03:40:52;;;;;;;13.75;10.00;;;;;;;23.80;58.01;101713.84;6167928;23;20326;-80
2023/08/12 03:43:20;;;;;;;14.95;9.73;;;;;;;23.58;58.46;101699.47;6147501;23;20344;-80
2023/08/12 03:45:46;;;;;;;14.15;10.07;;;;;;;23.39;59.05;101676.56;6159620;23;20098;-79
2023/08/12 03:48:13;;;;;;;12.35;10.02;;;;;;;23.58;59.96;101727.41;6177991;23;20031;-79
2023/08/12 03:50:42;;;;;;;17.00;9.90;;;;;;;23.52;59.76;101714.66;6144613;23;20418;-79
2023/08/12 03:53:11;;;;;;;12.80;9.77;;;;;;;23.52;59.87;101722.78;6176300;23;20017;-81
2023/08/12 03:55:38;;;;;;;13.77;11.18;;;;;;;23.29;60.41;101705.88;6168972;23;20016;-79
2023/08/12 03:58:05;;;;;;;15.85;11.13;;;;;;;22.99;60.66;101660.81;6158413;23;20020;-80
2023/08/12 04:00:32;;;;;;;12.57;10.00;;;;;;;23.33;60.70;101724.25;6145454;23;20089;-80
2023/08/12 04:02:58;;;;;;;15.60;11.55;;;;;;;23.19;60.98;101707.03;6160346;23;20288;-80
2023/08/12 04:05:25;;;;;;;15.82;11.77;;;;;;;22.90;61.45;101677.31;6155547;23;20020;-79
2023/08/12 04:07:52;;;;;;;19.13;11.93;;;;;;;23.19;61.20;101717.88;6153911;23;20451;-80
2023/08/12 04:10:21;;;;;;;16.60;11.50;;;;;;;22.79;61.90;101663.28;6135361;23;20024;-79
2023/08/12 04:12:47;;;;;;;19.67;13.40;;;;;;;23.13;61.56;101713.25;6166886;23;20020;-81
2023/08/12 04:15:14;;;;;;;17.98;12.88;;;;;;;22.28;61.56;101568.63;6143464;23;20028;-79
2023/08/12 04:17:41;;;;;;;18.30;13.50;;;;;;;23.18;61.75;101704.50;6144833;23;20095;-80
2023/08/12 04:20:13;;;;;;;18.83;12.30;;;;;;;23.20;61.88;101719.53;6133807;23;20116;-81
2023/08/12 04:22:42;;;;;;;29.30;13.63;;;;;;;23.13;62.43;101718.66;6182480;23;20391;-79
2023/08/12 04:25:09;;;;;;;17.27;12.18;;;;;;;23.09;62.46;101728.19;6152692;23;20043;-79
2023/08/12 04:27:36;;;;;;;17.75;12.38;;;;;;;23.08;62.45;101721.06;6142787;23;20036;-79
2023/08/12 04:30:03;;;;;;;21.95;12.73;;;;;;;23.11;62.47;101727.97;6187269;23;20020;-81
2023/08/12 04:32:30;;;;;;;20.25;11.68;;;;;;;22.78;62.69;101683.22;6154419;23;20021;-79
2023/08/12 04:34:56;;;;;;;17.75;12.73;;;;;;;22.91;62.83;101706.06;6155111;23;20017;-80
2023/08/12 04:37:24;;;;;;;18.95;13.18;;;;;;;22.99;62.86;101716.81;6171239;23;20067;-79
2023/08/12 04:39:51;;;;;;;24.23;12.63;;;;;;;23.01;63.00;101714.75;6148020;23;20012;-81
2023/08/12 04:42:18;;;;;;;18.75;12.27;;;;;;;22.97;63.15;101710.72;6157733;23;20655;-80
2023/08/12 04:44:45;;;;;;;15.07;11.90;;;;;;;22.72;63.13;101673.19;6173255;23;20389;-81
2023/08/12 04:47:13;;;;;;;22.15;11.60;;;;;;;23.02;63.22;101717.28;6139415;23;20021;-79
2023/08/12 04:49:41;;;;;;;14.98;11.38;;;;;;;22.89;63.50;101695.44;6139997;23;20023;-81
2023/08/12 04:52:08;;;;;;;15.70;12.50;;;;;;;22.67;63.32;101663.94;6134006;23;20044;-79
2023/08/12 04:54:35;;;;;;;19.95;12.00;;;;;;;23.06;63.03;101723.16;6163582;23;20021;-81
2023/08/12 04:57:02;;;;;;;32.17;12.05;;;;;;;23.08;63.54;101710.25;6160493;23;20017;-79
2023/08/12 04:59:31;;;;;;;18.27;11.80;;;;;;;22.84;62.80;101659.97;6147890;23;20463;-79
2023/08/12 05:01:58;;;;;;;20.45;12.10;;;;;;;23.29;62.52;101712.13;6191347;23;20024;-80
2023/08/12 05:04:42;;;;;;;14.52;9.75;;;;;;;23.10;62.44;101664.84;6167724;23;20013;-80
2023/08/12 05:07:10;;;;;;;19.23;9.77;;;;;;;23.45;62.11;101716.47;6176418;23;20020;-80
2023/08/12 05:09:37;;;;;;;17.45;9.75;;;;;;;23.51;61.38;101696.69;6169690;23;20445;-79
2023/08/12 05:12:04;;;;;;;15.82;10.02;;;;;;;23.52;61.33;101692.97;6163905;23;20165;-79
2023/08/12 05:14:30;;;;;;;14.55;9.35;;;;;;;23.75;60.41;101694.63;6161265;23;20024;-79
2023/08/12 05:16:57;;;;;;;13.18;9.05;;;;;;;23.74;60.18;101703.78;6167590;23;20613;-81
2023/08/12 05:19:24;;;;;;;11.98;8.63;;;;;;;23.59;59.83;101683.03;6180788;23;20050;-80
2023/08/12 05:21:50;;;;;;;10.30;8.52;;;;;;;23.71;59.79;101709.56;6173533;23;20028;-79
2023/08/12 05:24:17;;;;;;;13.68;7.88;;;;;;;22.95;59.55;101562.00;6160872;23;20017;-79
2023/08/12 05:26:44;;;;;;;10.63;8.48;;;;;;;23.60;59.47;101668.41;6167822;23;20249;-78
2023/08/12 05:29:11;;;;;;;13.63;8.75;;;;;;;23.85;59.55;101708.66;6175345;23;20025;-79
2023/08/12 05:31:37;;;;;;;13.18;8.98;;;;;;;23.46;59.18;101631.41;6176728;23;20024;-79
2023/08/12 05:34:04;;;;;;;13.07;7.95;;;;;;;23.86;58.98;101691.34;6180975;23;20619;-80
2023/08/12 05:36:31;;;;;;;14.82;8.38;;;;;;;23.91;59.02;101694.34;6161013;23;20078;-82
2023/08/12 05:38:58;;;;;;;13.98;7.80;;;;;;;23.86;58.63;101685.94;6191470;23;20048;-81
2023/08/12 05:41:26;;;;;;;12.95;8.60;;;;;;;23.51;58.58;101620.81;6157484;23;20108;-82
2023/08/12 05:43:53;;;;;;;10.43;7.82;;;;;;;23.96;58.83;101681.00;6147825;23;20028;-81
2023/08/12 05:46:20;;;;;;;10.85;7.68;;;;;;;24.18;58.47;101700.75;6159156;23;20512;-80
2023/08/12 05:48:47;;;;;;;8.75;7.30;;;;;;;24.19;57.71;101696.16;6185883;23;20432;-81
2023/08/12 05:51:13;;;;;;;8.73;7.75;;;;;;;24.22;58.07;101701.19;6179834;23;20027;-80
2023/08/12 05:53:40;;;;;;;12.73;7.00;;;;;;;24.21;57.40;101691.38;6194267;23;20392;-80
2023/08/12 05:56:07;;;;;;;14.27;7.40;;;;;;;24.35;56.62;101697.72;6139629;23;20520;-80
2023/08/12 05:58:34;;;;;;;11.45;6.45;;;;;;;24.37;56.20;101699.19;6154101;23;20495;-81
2023/08/12 06:01:00;;;;;;;7.07;5.88;;;;;;;24.45;55.60;101700.91;6111661;23;20413;-81
2023/08/12 06:03:28;;;;;;;7.63;6.10;;;;;;;24.33;55.60;101669.94;6143769;23;20380;-81
2023/08/12 06:05:55;;;;;;;7.72;5.55;;;;;;;23.95;55.04;101603.38;6129488;23;20518;-81
2023/08/12 06:08:22;;;;;;;8.10;5.93;;;;;;;24.58;54.98;101705.56;6166727;23;20917;-82
2023/08/12 06:10:49;;;;;;;8.85;5.55;;;;;;;24.09;54.53;101607.84;6138957;23;20024;-81
2023/08/12 06:13:16;;;;;;;8.80;6.30;;;;;;;24.04;55.15;101599.47;6156473;23;20017;-81
2023/08/12 06:15:43;;;;;;;12.48;6.93;;;;;;;24.63;54.96;101697.66;6183241;23;20042;-82
2023/08/12 06:18:10;;;;;;;13.45;6.47;;;;;;;24.56;54.94;101686.75;6159662;23;20094;-81
2023/08/12 06:20:37;;;;;;;9.13;5.53;;;;;;;24.57;54.72;101676.75;6146294;23;20104;-81
2023/08/12 06:23:03;;;;;;;7.45;5.70;;;;;;;24.79;55.19;101702.72;6160875;23;20111;-81
2023/08/12 06:25:30;;;;;;;9.82;6.53;;;;;;;24.67;54.83;101682.63;6118774;23;20073;-82
2023/08/12 06:28:04;;;;;;;7.03;5.18;;;;;;;24.39;54.59;101618.41;6130255;23;20367;-81
2023/08/12 06:30:33;;;;;;;6.90;6.18;;;;;;;25.02;54.95;101712.41;6132410;23;20436;-82
2023/08/12 06:33:00;;;;;;;12.02;6.68;;;;;;;24.64;54.20;101653.19;6134061;23;20525;-81
2023/08/12 06:35:26;;;;;;;7.47;5.20;;;;;;;24.98;54.29;101705.69;6138961;23;20697;-82
2023/08/12 06:37:53;;;;;;;10.82;6.65;;;;;;;24.13;54.37;101566.75;6136976;23;20024;-81
2023/08/12 06:40:20;;;;;;;8.05;6.22;;;;;;;25.10;54.36;101720.38;6146585;23;20059;-82
2023/08/12 06:42:47;;;;;;;9.57;5.95;;;;;;;25.04;54.02;101685.88;6155633;23;20020;-82
2023/08/12 06:45:17;;;;;;;7.22;6.15;;;;;;;25.10;54.29;101679.63;6150431;23;20021;-81
2023/08/12 06:47:45;;;;;;;9.90;6.85;;;;;;;25.32;54.50;101713.75;6159651;23;20021;-80
2023/08/12 06:50:12;;;;;;;16.85;7.75;;;;;;;25.30;54.50;101704.97;6145953;23;20348;-80
2023/08/12 06:52:39;;;;;;;14.82;7.43;;;;;;;25.41;54.20;101705.38;6152116;23;20432;-79
2023/08/12 06:55:06;;;;;;;7.60;6.80;;;;;;;25.38;54.37;101691.16;6153417;23;20023;-80
2023/08/12 06:57:33;;;;;;;12.70;6.65;;;;;;;25.43;54.39;101697.84;6128080;23;20495;-79
2023/08/12 07:00:05;;;;;;;16.92;6.80;;;;;;;25.63;54.08;101698.69;6140910;23;20017;-79
2023/08/12 07:02:32;;;;;;;13.98;7.13;;;;;;;25.66;53.94;101717.31;6166727;23;20023;-78
2023/08/12 07:05:01;;;;;;;12.38;7.43;;;;;;;25.67;54.52;101705.38;6178798;23;20066;-80
2023/08/12 07:07:28;;;;;;;14.30;6.95;;;;;;;25.70;54.55;101688.63;6206988;23;20023;-78
2023/08/12 07:10:03;;;;;;;13.98;7.75;;;;;;;25.92;54.11;101700.16;6165054;23;20363;-79
2023/08/12 07:12:30;;;;;;;10.75;8.02;;;;;;;25.72;54.35;101672.13;6178682;23;20529;-81
2023/08/12 07:14:56;;;;;;;12.70;9.80;;;;;;;25.91;54.26;101711.25;6175694;23;20042;-80
2023/08/12 07:17:24;;;;;;;10.38;7.90;;;;;;;25.96;54.52;101708.75;6194207;23;20401;-79
2023/08/12 07:19:50;;;;;;;11.48;8.70;;;;;;;25.55;54.32;101629.03;6171204;23;20313;-80
2023/08/12 07:22:19;;;;;;;15.75;8.50;;;;;;;25.80;54.47;101678.19;6162756;23;20024;-79
2023/08/12 07:24:45;;;;;;;17.40;8.40;;;;;;;25.67;54.59;101667.31;6175272;23;20264;-77
2023/08/12 07:27:12;;;;;;;9.00;7.95;;;;;;;25.82;54.52;101675.25;6173111;23;20020;-80
2023/08/12 07:29:39;;;;;;;11.07;7.63;;;;;;;26.00;54.38;101701.84;6168793;23;20024;-80
2023/08/12 07:32:06;;;;;;;14.18;7.78;;;;;;;26.00;54.12;101677.34;6182729;23;20024;-81
2023/08/12 07:34:32;;;;;;;12.70;8.30;;;;;;;26.18;54.07;101703.88;6179260;23;20016;-79
2023/08/12 07:36:59;;;;;;;9.75;8.35;;;;;;;26.05;53.88;101688.44;6204801;23;20471;-80
2023/08/12 07:39:26;;;;;;;10.60;7.55;;;;;;;26.10;53.88;101691.34;6163104;23;20238;-80
2023/08/12 07:41:58;;;;;;;12.90;6.82;;;;;;;26.25;53.53;101707.41;6162696;23;20098;-80
2023/08/12 07:44:25;;;;;;;10.55;7.82;;;;;;;26.24;53.62;101711.19;6164856;23;20407;-80
2023/08/12 07:46:57;;;;;;;11.40;7.70;;;;;;;26.19;53.81;101684.63;6174848;23;20340;-81
2023/08/12 07:49:27;;;;;;;12.23;7.38;;;;;;;26.34;53.78;101711.59;6168831;23;20027;-81
2023/08/12 07:51:54;;;;;;;13.60;7.80;;;;;;;26.10;54.02;101672.28;6175283;23;20103;-80
2023/08/12 07:54:20;;;;;;;13.02;8.75;;;;;;;26.53;52.99;101717.16;6175036;23;20016;-80
2023/08/12 07:56:47;;;;;;;13.32;7.43;;;;;;;26.57;52.73;101716.53;6168439;23;20499;-79
2023/08/12 07:59:14;;;;;;;13.57;7.90;;;;;;;26.18;52.86;101653.00;6176056;23;20405;-80
2023/08/12 08:01:41;;;;;;;9.73;7.68;;;;;;;26.49;52.71;101708.59;6165219;23;20051;-80
2023/08/12 08:04:12;;;;;;;15.65;8.23;;;;;;;26.20;53.11;101683.56;6133456;23;20024;-80
2023/08/12 08:06:45;;;;;;;11.65;7.53;;;;;;;26.61;53.02;101723.25;6141294;23;20021;-78
2023/08/12 08:09:17;;;;;;;10.60;7.85;;;;;;;26.32;52.94;101661.13;6130141;23;20086;-79
2023/08/12 08:11:43;;;;;;;7.78;6.28;;;;;;;26.44;52.46;101664.84;6161184;23;20404;-79
2023/08/12 08:14:10;;;;;;;13.27;8.00;;;;;;;26.60;52.56;101693.50;6170546;23;20249;-80
2023/08/12 08:16:42;;;;;;;11.13;7.30;;;;;;;26.82;51.96;101707.63;6165442;23;20021;-80
2023/08/12 08:19:09;;;;;;;7.97;7.18;;;;;;;26.82;51.50;101680.38;6169735;23;20019;-80
2023/08/12 08:21:39;;;;;;;11.32;7.53;;;;;;;26.90;51.63;101701.09;6117031;23;20071;-80
2023/08/12 08:24:06;;;;;;;10.15;7.45;;;;;;;26.20;51.63;101596.47;6168194;23;20143;-80
2023/08/12 08:26:34;;;;;;;9.13;7.80;;;;;;;26.83;51.68;101687.53;6146654;23;20107;-79
2023/08/12 08:29:00;;;;;;;15.23;8.40;;;;;;;27.04;51.83;101714.44;6156301;23;20027;-80
2023/08/12 08:31:28;;;;;;;8.30;7.50;;;;;;;27.10;52.26;101710.00;6189315;23;20449;-79
2023/08/12 08:33:55;;;;;;;11.40;7.07;;;;;;;27.18;51.25;101692.53;6172128;23;20020;-79
2023/08/12 08:36:22;;;;;;;13.75;8.48;;;;;;;27.34;50.84;101713.84;6149635;23;20024;-79
2023/08/12 08:38:49;;;;;;;9.23;7.43;;;;;;;27.34;50.91;101704.84;6145111;23;20083;-80
2023/08/12 08:41:17;;;;;;;10.07;8.05;;;;;;;27.43;50.69;101698.88;6161461;23;20021;-79
2023/08/12 08:43:47;;;;;;;9.88;7.45;;;;;;;27.27;50.69;101672.16;6139962;23;20017;-78
2023/08/12 08:46:21;;;;;;;8.85;7.80;;;;;;;27.45;50.38;101699.50;6121575;23;20612;-79
2023/08/12 08:48:55;;;;;;;9.13;7.93;;;;;;;27.59;50.15;101702.09;6124514;23;20044;-80
2023/08/12 08:51:22;;;;;;;10.00;7.22;;;;;;;27.59;50.17;101692.03;6172320;23;20071;-78
2023/08/12 08:53:49;;;;;;;8.50;7.28;;;;;;;27.74;49.91;101699.03;6181023;23;20024;-80
2023/08/12 08:56:18;;;;;;;7.47;6.72;;;;;;;27.58;49.32;101659.53;6154233;23;20021;-80
2023/08/12 08:58:49;;;;;;;11.57;7.72;;;;;;;27.80;49.12;101692.69;6146564;23;20027;-80
2023/08/12 09:01:25;;;;;;;13.30;7.60;;;;;;;28.05;48.56;101698.13;6113951;23;20787;-80
2023/08/12 09:03:53;;;;;;;10.18;6.22;;;;;;;27.94;48.52;101655.19;6175110;23;20398;-80
2023/08/12 09:06:22;;;;;;;9.75;6.80;;;;;;;28.34;47.74;101691.91;6185114;23;20460;-80
2023/08/12 09:08:52;;;;;;;9.63;6.95;;;;;;;28.24;47.59;101668.94;6170975;23;20761;-81
2023/08/12 09:11:19;;;;;;;12.68;8.38;;;;;;;28.31;48.10;101684.16;6153833;23;20345;-80
2023/08/12 09:13:48;;;;;;;12.98;8.13;;;;;;;28.32;47.91;101680.38;6141876;23;20021;-80
2023/08/12 09:16:18;;;;;;;8.68;6.68;;;;;;;28.71;45.92;101710.16;6175103;23;20043;-81
2023/08/12 09:18:45;;;;;;;11.38;7.22;;;;;;;28.62;46.09;101665.97;6149304;23;20297;-81
2023/08/12 09:21:12;;;;;;;10.55;5.93;;;;;;;28.72;45.45;101668.13;6138626;23;20027;-81
2023/08/12 09:23:40;;;;;;;7.65;6.53;;;;;;;28.94;44.87;101703.97;6183147;23;20040;-81
2023/08/12 09:26:18;;;;;;;7.97;6.55;;;;;;;28.95;44.26;101691.97;6176908;23;20024;-80
2023/08/12 09:28:46;;;;;;;11.07;6.80;;;;;;;29.03;44.74;101699.00;6150196;23;20028;-81
2023/08/12 09:31:24;;;;;;;10.23;6.20;;;;;;;28.79;44.06;101660.69;6154373;23;20016;-82
2023/08/12 09:33:51;;;;;;;7.25;6.43;;;;;;;29.06;44.53;101685.75;6178647;23;20738;-81
2023/08/12 09:36:20;;;;;;;8.80;5.90;;;;;;;28.99;44.87;101663.13;6145308;23;20330;-81
2023/08/12 09:38:47;;;;;;;13.40;5.82;;;;;;;28.89;44.37;101632.78;6152376;23;20025;-81
2023/08/12 09:41:14;;;;;;;8.93;6.00;;;;;;;29.34;43.38;101676.03;6173121;23;20020;-81
2023/08/12 09:43:42;;;;;;;8.60;6.35;;;;;;;29.55;43.54;101671.91;6148824;23;20492;-81
2023/08/12 09:46:16;;;;;;;7.80;6.03;;;;;;;29.84;42.80;101697.53;6170287;23;20017;-81
2023/08/12 09:48:43;;;;;;;9.05;6.45;;;;;;;30.11;42.23;101702.50;6135614;23;20428;-81
2023/08/12 09:51:10;;;;;;;8.05;5.68;;;;;;;29.79;42.38;101640.75;6143892;23;20476;-80
2023/08/12 09:53:37;;;;;;;11.75;5.93;;;;;;;29.95;41.85;101652.03;6143998;23;20327;-82
2023/08/12 09:56:11;;;;;;;11.35;6.40;;;;;;;30.35;41.14;101690.44;6125615;23;20062;-82
2023/08/12 09:58:39;;;;;;;8.95;6.22;;;;;;;30.36;41.41;101683.88;6149539;23;20079;-82
2023/08/12 10:01:09;;;;;;;9.10;5.90;;;;;;;30.36;41.14;101659.22;6159423;23;20210;-81
2023/08/12 10:03:37;;;;;;;8.02;5.97;;;;;;;30.20;40.99;101618.91;6162312;23;20452;-83
2023/08/12 10:06:08;;;;;;;8.88;5.45;;;;;;;30.62;40.46;101665.22;6153758;23;20023;-82
2023/08/12 10:08:35;;;;;;;7.78;5.30;;;;;;;30.77;40.26;101673.72;6134252;23;20299;-81
2023/08/12 10:11:02;;;;;;;11.73;6.03;;;;;;;30.70;40.52;101645.63;6160906;23;20374;-81
2023/08/12 10:13:40;;;;;;;8.38;5.93;;;;;;;31.03;40.25;101675.06;6140157;23;20024;-80
2023/08/12 10:16:12;;;;;;;9.25;5.63;;;;;;;31.10;39.23;101650.22;6155654;23;20088;-79
2023/08/12 10:18:40;;;;;;;12.80;5.93;;;;;;;31.30;37.33;101642.31;6149102;23;20027;-81
2023/08/12 10:21:11;;;;;;;6.78;5.60;;;;;;;31.61;37.58;101673.00;6143276;23;20028;-82
2023/08/12 10:23:41;;;;;;;8.88;6.00;;;;;;;31.47;37.84;101634.09;6135924;23;20027;-82
2023/08/12 10:26:12;;;;;;;13.25;5.85;;;;;;;31.67;37.22;101666.50;6148399;23;20031;-80
2023/08/12 10:28:39;;;;;;;6.53;5.15;;;;;;;31.80;37.03;101659.84;6172218;23;20452;-81
2023/08/12 10:31:07;;;;;;;7.18;6.28;;;;;;;31.75;37.02;101661.66;6183375;23;20403;-83
2023/08/12 10:33:38;;;;;;;9.45;4.65;;;;;;;31.73;37.00;101627.06;6177309;23;20025;-81
2023/08/12 10:36:08;;;;;;;6.32;5.38;;;;;;;31.69;36.59;101609.44;6151135;23;20031;-82
2023/08/12 10:38:35;;;;;;;6.45;5.32;;;;;;;31.91;36.65;101630.59;6174540;23;20028;-82
2023/08/12 10:41:18;;;;;;;6.07;4.90;;;;;;;32.01;36.30;101622.50;6172161;23;20537;-82
2023/08/12 10:43:50;;;;;;;6.18;5.57;;;;;;;32.36;35.34;101640.53;6178552;23;20027;-82
2023/08/12 10:46:34;;;;;;;7.55;5.72;;;;;;;32.38;35.49;101616.34;6172684;23;20475;-82
2023/08/12 10:49:11;;;;;;;7.97;5.35;;;;;;;32.62;34.97;101621.59;6143670;23;20025;-82
2023/08/12 10:51:47;;;;;;;6.85;5.57;;;;;;;32.74;34.81;101616.75;6132267;23;20519;-83
2023/08/12 10:54:20;;;;;;;9.95;5.68;;;;;;;32.97;35.19;101627.41;6172466;23;20024;-80
2023/08/12 10:57:05;;;;;;;14.40;5.05;;;;;;;33.19;34.80;101632.03;6132896;23;20111;-82
2023/08/12 10:59:45;;;;;;;6.07;5.05;;;;;;;33.31;34.79;101621.66;6150226;23;20052;-82
2023/08/12 11:02:32;;;;;;;9.75;6.30;;;;;;;33.38;34.78;101596.66;6172303;23;20119;-81
2023/08/12 11:05:06;;;;;;;5.93;5.32;;;;;;;33.60;33.81;101605.63;6174256;23;20017;-80
2023/08/12 11:07:46;;;;;;;7.03;5.20;;;;;;;33.24;34.14;101560.53;6137763;23;20027;-81
2023/08/12 11:10:21;;;;;;;15.77;6.20;;;;;;;33.70;32.97;101587.53;6161031;23;20028;-82
2023/08/12 11:12:58;;;;;;;8.93;4.93;;;;;;;33.75;33.18;101606.81;6166815;23;20090;-82
2023/08/12 11:15:37;;;;;;;5.97;4.95;;;;;;;33.83;33.40;101593.34;6163917;23;20016;-81
2023/08/12 11:18:10;;;;;;;6.38;5.57;;;;;;;33.11;32.46;101426.19;6150728;23;20025;-82
2023/08/12 11:20:37;;;;;;;6.03;5.38;;;;;;;34.16;32.74;101594.06;6148657;23;20028;-82
2023/08/12 11:23:05;;;;;;;13.52;5.63;;;;;;;34.32;32.83;101600.41;6146175;23;20689;-82
2023/08/12 11:25:34;;;;;;;7.28;5.25;;;;;;;34.41;32.18;101584.19;6152754;23;20523;-82
2023/08/12 11:28:01;;;;;;;7.75;4.53;;;;;;;34.59;32.28;101591.97;6162118;23;20060;-82